• Join FlightAware (Why Join?)
  • Login
  • US Flag 
11:59PM EDT


 

Airport Tracker/Info


-or-


 

Live Flight TrackerFlight Track Log ✈ N9HM ✈ 26-Oct-2013 ✈ KSBP - KTRK

Flight Track Log - Related Links

Times and Time Zones

All times are in EDT time to prevent confusion due to time zone crossing. See the N9HM flight status page for this flight to view local times or setup timezone preferences in your user account.

Time Position Orientation Groundspeed Altitude Reporting Facility
EDT Latitude Longitude Course Direction KTS MPH feet Rate Location/Type
12:35PM 35.2575 -120.6481 North 73 84 1,600  Level Los Angeles Center
12:36PM 35.2828 -120.6453 North 86 99 2,600 960 Climbing Los Angeles Center
12:37PM 35.2989 -120.6464 357° North 93 107 3,300 900 Climbing Los Angeles Center
12:38PM 35.3264 -120.6422 North 96 110 4,200 840 Climbing Los Angeles Center
12:39PM 35.3556 -120.6403 North 100 115 5,100 720 Climbing Los Angeles Center
12:40PM 35.3858 -120.6375 North 105 121 5,800 720 Climbing Los Angeles Center
12:41PM 35.4748 -120.6148 North  Level Estimated
12:41PM 35.4233 -120.6283 11° North 111 128 6,700  Level Los Angeles Center
12:42PM 35.4561 -120.6247 North 116 133 7,500 660 Climbing Los Angeles Center
12:43PM 35.4878 -120.6225 North 116 133 8,100 540 Climbing Los Angeles Center
12:44PM 35.5192 -120.6178 North 115 132 8,700 540 Climbing Los Angeles Center
12:45PM 35.5519 -120.6106 10° North 118 136 9,300 540 Climbing Los Angeles Center
12:46PM 35.5847 -120.6081 North 119 137 9,900 540 Climbing Los Angeles Center
12:47PM 35.6258 -120.6047 North 123 142 10,500 240 Climbing Los Angeles Center
12:48PM 35.6664 -120.5997 North 139 160 10,500  Level Los Angeles Center
12:49PM 35.7086 -120.5964 North 150 173 10,500  Level Los Angeles Center
12:50PM 35.7508 -120.5936 North 152 175 10,500  Level Los Angeles Center
12:51PM 35.7925 -120.5889 North 151 174 10,500  Level Los Angeles Center
12:52PM 35.8425 -120.5803 North 151 174 10,500  Level Oakland Center
12:53PM 35.8856 -120.5767 North 155 178 10,500  Level Oakland Center
12:54PM 35.9278 -120.5717 North 154 177 10,500  Level Oakland Center
12:55PM 35.9697 -120.5667 North 152 175 10,600  Climbing Oakland Center
12:56PM 36.0111 -120.5633 North 151 174 10,600  Level Oakland Center
12:57PM 36.0514 -120.5569 North 147 169 10,600  Level Oakland Center
12:58PM 36.0931 -120.5519 North 149 171 10,600  Level Oakland Center
12:59PM 36.1350 -120.5478 North 151 174 10,600  Level Oakland Center
01:01PM 36.1764 -120.5417 North 150 173 10,600 -60 Level Oakland Center
01:02PM 36.2269 -120.5328 North 153 176 10,500 -60 Descending Oakland Center
01:03PM 36.2700 -120.5275 North 155 178 10,500  Level Oakland Center
01:04PM 36.3108 -120.5222 North 150 173 10,500  Level Oakland Center
01:05PM 36.3536 -120.5169 North 152 175 10,500  Level Oakland Center
01:06PM 36.3956 -120.5097 North 154 177 10,500  Level Oakland Center
01:07PM 36.4369 -120.5061 North 150 173 10,500  Level Oakland Center
01:08PM 36.4797 -120.5006 North 153 176 10,500  Level Oakland Center
01:09PM 36.5222 -120.4950 North 153 176 10,500  Level Oakland Center
01:10PM 36.5644 -120.4900 North 153 176 10,500  Level Oakland Center
01:11PM 36.6067 -120.4858 North 153 176 10,600  Climbing Oakland Center
01:12PM 36.6575 -120.4786 North 153 176 10,600  Level Oakland Center
01:13PM 36.6992 -120.4739 North 150 173 10,600  Level Oakland Center
01:14PM 36.7411 -120.4681 North 151 174 10,600  Level Oakland Center
01:15PM 36.7831 -120.4619 North 152 175 10,600  Level Oakland Center
01:16PM 36.8269 -120.4553 North 150 173 10,600  Level Oakland Center
01:17PM 36.8692 -120.4497 North 152 175 10,600  Level Oakland Center
01:18PM 36.9108 -120.4433 North 152 175 10,600  Level Oakland Center
01:19PM 36.9522 -120.4400 North 149 171 10,600  Level Oakland Center
01:20PM 36.9939 -120.4369 North 149 171 10,600  Level Oakland Center
01:21PM 37.0361 -120.4347 North 151 174 10,600  Level Oakland Center
01:22PM 37.0778 -120.4328 North 150 173 10,600  Level Oakland Center
01:23PM 37.1200 -120.4292 North 150 173 10,600  Level Oakland Center
01:24PM 37.1500 -120.4333 354° North 149 171 10,600  Level Northern Cal TRACON
01:25PM 37.2000 -120.4167 15° North 154 177 10,600  Level Northern Cal TRACON
01:26PM 37.2333 -120.4167 360° North 122 140 10,600  Level Northern Cal TRACON
01:28PM 37.3167 -120.4000 North 151 174 10,600  Level Northern Cal TRACON
01:29PM 37.3667 -120.4000 360° North 153 176 10,600  Level Northern Cal TRACON
01:31PM 37.4500 -120.4000 360° North 148 170 10,600  Level Northern Cal TRACON
01:32PM 37.5011 -120.3861 12° North 148 170 10,600  Level Oakland Center
01:33PM 37.5417 -120.3797 North 148 170 10,600  Level Oakland Center
01:34PM 37.5819 -120.3733 North 146 168 10,600  Level Oakland Center
01:35PM 37.6308 -120.3667 North 148 170 10,600  Level Oakland Center
01:36PM 37.6719 -120.3600 North 148 170 10,600  Level Oakland Center
01:37PM 37.7131 -120.3531 North 148 170 10,600  Level Oakland Center
01:38PM 37.7536 -120.3469 North 147 169 10,600  Level Oakland Center
01:39PM 37.7950 -120.3386 North 148 170 10,600  Level Oakland Center
01:40PM 37.8361 -120.3325 North 149 171 10,600  Level Oakland Center
01:41PM 37.8769 -120.3253 North 149 171 10,600  Level Oakland Center
01:42PM 37.9167 -120.3219 North 145 167 10,600  Level Oakland Center
01:43PM 37.9569 -120.3175 North 146 168 10,600  Level Oakland Center
01:44PM 37.9997 -120.3131 North 151 174 10,600  Level Oakland Center
01:45PM 38.0492 -120.3094 North 150 173 10,600  Level Oakland Center
01:46PM 38.0892 -120.3053 North 145 167 10,600  Level Oakland Center
01:47PM 38.1308 -120.3000 North 148 170 10,600  Level Oakland Center
01:48PM 38.1711 -120.2942 North 148 170 10,600  Level Oakland Center
01:50PM 38.2142 -120.2881 North 150 173 10,600  Level Oakland Center
01:51PM 38.2550 -120.2831 North 150 173 10,600  Level Oakland Center
01:52PM 38.2953 -120.2775 North 147 169 10,600  Level Oakland Center
01:53PM 38.3375 -120.2703 North 150 173 10,600  Level Oakland Center
01:54PM 38.3789 -120.2647 North 149 171 10,600  Level Oakland Center
01:55PM 38.4283 -120.2578 North 149 171 10,600  Level Oakland Center
01:56PM 38.4711 -120.2511 North 152 175 10,600  Level Oakland Center
01:57PM 38.5122 -120.2464 North 151 174 10,600  Level Oakland Center
01:58PM 38.5525 -120.2406 North 148 170 10,600  Level Oakland Center
01:59PM 38.5933 -120.2358 North 148 170 10,600  Level Oakland Center
02:00PM 38.6350 -120.2311 North 149 171 10,600  Level Oakland Center
02:01PM 38.6778 -120.2264 North 152 175 10,600  Level Oakland Center
02:02PM 38.7192 -120.2219 North 150 173 10,600 -120 Level Oakland Center
02:03PM 38.7706 -120.2175 North 152 175 10,400 -120 Descending Oakland Center
02:04PM 38.8103 -120.2136 North 148 170 10,400  Level Oakland Center
02:05PM 38.8522 -120.2075 North 150 173 10,500  Climbing Oakland Center
02:06PM 38.8925 -120.2022 North 148 170 10,500 -120 Level Oakland Center
02:07PM 38.9342 -120.1983 North 148 170 10,300 -240 Descending Oakland Center